createdAt,value
2023-08-25T00:01:50.402Z,13.07
2023-08-25T00:03:53.347Z,13.06
2023-08-25T00:05:56.173Z,13.05
2023-08-25T00:07:59.124Z,13.04
2023-08-25T00:10:02.030Z,13.01
2023-08-25T00:12:07.481Z,12.97
2023-08-25T00:14:10.393Z,12.94
2023-08-25T00:16:13.584Z,12.94
2023-08-25T00:18:16.640Z,12.95
2023-08-25T00:20:20.242Z,12.96
2023-08-25T00:22:23.246Z,12.96
2023-08-25T00:24:26.290Z,12.96
2023-08-25T00:26:29.453Z,12.94
2023-08-25T00:28:32.331Z,12.93
2023-08-25T00:30:35.053Z,12.92
2023-08-25T00:32:39.794Z,12.93
2023-08-25T00:34:42.589Z,12.91
2023-08-25T00:36:46.125Z,12.90
2023-08-25T00:38:48.836Z,12.90
2023-08-25T00:40:51.600Z,12.88
2023-08-25T00:42:54.488Z,12.86
2023-08-25T00:44:57.218Z,12.88
2023-08-25T00:47:00.954Z,12.88
2023-08-25T00:49:04.469Z,12.89
2023-08-25T00:51:10.305Z,12.88
2023-08-25T00:53:13.779Z,12.83
2023-08-25T00:55:16.618Z,12.82
2023-08-25T00:57:20.020Z,12.84
2023-08-25T00:59:22.953Z,12.79
2023-08-25T01:01:25.743Z,12.76
2023-08-25T01:03:28.816Z,12.79
2023-08-25T01:05:32.336Z,12.78
2023-08-25T01:07:35.084Z,12.79
2023-08-25T01:09:37.908Z,12.72
2023-08-25T01:12:00.730Z,12.73
2023-08-25T01:14:18.333Z,12.72
2023-08-25T01:16:30.544Z,12.66
2023-08-25T01:18:36.041Z,12.64
2023-08-25T01:20:40.270Z,12.61
2023-08-25T01:23:21.116Z,12.62
2023-08-25T01:25:33.073Z,12.57
2023-08-25T01:27:36.430Z,12.58
2023-08-25T01:29:45.062Z,12.58
2023-08-25T01:31:48.159Z,12.62
2023-08-25T01:33:51.376Z,12.58
2023-08-25T01:36:15.997Z,12.52
2023-08-25T01:38:31.400Z,12.54
2023-08-25T01:40:53.204Z,12.52
2023-08-25T01:42:57.158Z,12.51
2023-08-25T01:45:03.638Z,12.54
2023-08-25T01:47:10.289Z,12.55
2023-08-25T01:49:15.440Z,12.55
2023-08-25T01:51:19.077Z,12.57
2023-08-25T01:53:22.690Z,12.57
2023-08-25T01:55:25.616Z,12.55
2023-08-25T01:57:29.204Z,12.58
2023-08-25T01:59:31.926Z,12.63
2023-08-25T02:01:34.744Z,12.62
2023-08-25T02:03:37.838Z,12.63
2023-08-25T02:05:42.007Z,12.61
2023-08-25T02:07:44.950Z,12.59
2023-08-25T02:09:47.687Z,12.61
2023-08-25T02:11:50.479Z,12.61
2023-08-25T02:13:53.255Z,12.59
2023-08-25T02:15:56.292Z,12.58
2023-08-25T02:17:59.270Z,12.57
2023-08-25T02:20:02.270Z,12.57
2023-08-25T02:22:08.540Z,12.57
2023-08-25T02:24:11.393Z,12.59
2023-08-25T02:26:14.202Z,12.54
2023-08-25T02:28:16.914Z,12.59
2023-08-25T02:30:19.653Z,12.60
2023-08-25T02:32:22.443Z,12.60
2023-08-25T02:34:25.163Z,12.61
2023-08-25T02:36:27.913Z,12.61
2023-08-25T02:38:30.849Z,12.63
2023-08-25T02:40:34.435Z,12.68
2023-08-25T02:42:37.182Z,12.71
2023-08-25T02:44:40.008Z,12.71
2023-08-25T02:46:43.978Z,12.71
2023-08-25T02:48:46.765Z,12.72
2023-08-25T02:50:49.468Z,12.72
2023-08-25T02:52:52.367Z,12.73
2023-08-25T02:54:55.207Z,12.74
2023-08-25T02:56:58.073Z,12.76
2023-08-25T02:59:00.865Z,12.73
2023-08-25T03:01:14.121Z,12.79
2023-08-25T03:03:17.041Z,12.79
2023-08-25T03:05:20.108Z,12.79
2023-08-25T03:07:22.747Z,12.81
2023-08-25T03:09:25.576Z,12.89
2023-08-25T03:11:28.268Z,12.96
2023-08-25T03:13:34.351Z,13.03
2023-08-25T03:15:37.670Z,13.06
2023-08-25T03:17:42.615Z,13.06
2023-08-25T03:19:45.580Z,13.09
2023-08-25T03:21:48.472Z,13.12
2023-08-25T03:23:51.172Z,13.16
2023-08-25T03:25:53.935Z,13.17
2023-08-25T03:27:56.600Z,13.14
2023-08-25T03:29:59.418Z,13.17
2023-08-25T03:32:02.445Z,13.19
2023-08-25T03:34:05.221Z,13.13
2023-08-25T03:36:07.949Z,13.18
2023-08-25T03:38:10.770Z,13.21
2023-08-25T03:40:13.670Z,13.23
2023-08-25T03:42:16.549Z,13.25
2023-08-25T03:44:19.216Z,13.27
2023-08-25T03:46:21.881Z,13.31
2023-08-25T03:48:26.264Z,13.33
2023-08-25T03:50:29.545Z,13.29
2023-08-25T03:52:32.264Z,13.36
2023-08-25T03:54:36.534Z,13.42
2023-08-25T03:56:39.518Z,13.51
2023-08-25T03:58:42.567Z,13.52
2023-08-25T04:00:51.970Z,13.56
2023-08-25T04:02:54.799Z,13.58
2023-08-25T04:04:57.610Z,13.62
2023-08-25T04:07:00.361Z,13.67
2023-08-25T04:09:03.115Z,13.70
2023-08-25T04:11:05.852Z,13.69
2023-08-25T04:13:09.396Z,13.66
2023-08-25T04:15:12.486Z,13.79
2023-08-25T04:17:15.496Z,13.82
2023-08-25T04:19:18.485Z,13.88
2023-08-25T04:21:21.484Z,14.04
2023-08-25T04:23:27.468Z,14.06
2023-08-25T04:25:31.271Z,14.09
2023-08-25T04:27:34.107Z,14.12
2023-08-25T04:29:36.873Z,14.17
2023-08-25T04:31:39.589Z,14.15
2023-08-25T04:33:43.126Z,14.10
2023-08-25T04:35:46.107Z,14.21
2023-08-25T04:37:49.148Z,14.24
2023-08-25T04:39:53.692Z,14.18
2023-08-25T04:41:56.372Z,14.17
2023-08-25T04:43:59.177Z,14.30
2023-08-25T04:46:01.967Z,14.41
2023-08-25T04:48:05.314Z,14.32
2023-08-25T04:50:09.572Z,14.41
2023-08-25T04:52:12.285Z,14.44
2023-08-25T04:54:15.407Z,14.48
2023-08-25T04:56:18.996Z,14.59
2023-08-25T04:58:23.075Z,14.66
2023-08-25T05:00:26.991Z,14.68
2023-08-25T05:02:29.701Z,14.65
2023-08-25T05:04:32.472Z,14.76
2023-08-25T05:06:35.274Z,14.95
2023-08-25T05:08:38.041Z,15.14
2023-08-25T05:10:41.118Z,15.32
2023-08-25T05:12:43.908Z,15.42
2023-08-25T05:14:46.577Z,15.53
2023-08-25T05:16:49.726Z,15.65
2023-08-25T05:18:52.433Z,15.74
2023-08-25T05:21:01.785Z,15.92
2023-08-25T05:23:04.887Z,15.89
2023-08-25T05:25:08.043Z,15.86
2023-08-25T05:27:10.780Z,15.79
2023-08-25T05:29:13.484Z,15.63
2023-08-25T05:31:16.113Z,15.74
2023-08-25T05:33:19.009Z,15.64
2023-08-25T05:35:21.758Z,15.70
2023-08-25T05:37:24.557Z,15.88
2023-08-25T05:39:27.424Z,15.98
2023-08-25T05:41:30.392Z,16.02
2023-08-25T05:43:33.120Z,16.21
2023-08-25T05:45:36.162Z,16.17
2023-08-25T05:47:39.090Z,16.27
2023-08-25T05:49:41.893Z,16.30
2023-08-25T05:51:46.214Z,16.41
2023-08-25T05:53:49.268Z,16.52
2023-08-25T05:55:52.192Z,16.63
2023-08-25T05:57:55.342Z,16.68
2023-08-25T05:59:59.620Z,16.72
2023-08-25T06:02:02.769Z,16.79
2023-08-25T06:04:05.977Z,16.77
2023-08-25T06:06:08.808Z,16.64
2023-08-25T06:08:12.772Z,16.52
2023-08-25T06:10:15.835Z,16.46
2023-08-25T06:12:18.745Z,16.39
2023-08-25T06:14:21.796Z,16.34
2023-08-25T06:16:24.792Z,16.31
2023-08-25T06:18:28.317Z,16.41
2023-08-25T06:20:32.086Z,16.49
2023-08-25T06:22:34.939Z,16.49
2023-08-25T06:24:38.728Z,16.40
2023-08-25T06:26:44.259Z,16.46
2023-08-25T06:28:47.316Z,16.53
2023-08-25T06:30:55.866Z,16.56
2023-08-25T06:33:05.118Z,16.62
2023-08-25T06:35:09.435Z,16.56
2023-08-25T06:37:12.794Z,16.65
2023-08-25T06:39:16.344Z,16.63
2023-08-25T06:41:19.820Z,16.71
2023-08-25T06:43:22.583Z,16.63
2023-08-25T06:45:25.247Z,16.37
2023-08-25T06:47:28.717Z,16.39
2023-08-25T06:49:31.523Z,16.55
2023-08-25T06:51:34.432Z,16.68
2023-08-25T06:53:37.365Z,16.94
2023-08-25T06:55:40.164Z,16.96
2023-08-25T06:57:42.956Z,17.02
2023-08-25T06:59:46.107Z,17.15
2023-08-25T07:01:48.920Z,17.35
2023-08-25T07:03:51.786Z,17.34
2023-08-25T07:06:01.209Z,17.30
2023-08-25T07:08:04.522Z,17.48
2023-08-25T07:10:08.488Z,17.65
2023-08-25T07:12:11.356Z,17.75
2023-08-25T07:14:14.435Z,17.89
2023-08-25T07:16:17.208Z,17.98
2023-08-25T07:18:22.847Z,17.89
2023-08-25T07:20:25.621Z,17.81
2023-08-25T07:22:28.454Z,17.68
2023-08-25T07:24:31.153Z,17.51
2023-08-25T07:26:34.006Z,17.42
2023-08-25T07:28:36.757Z,17.39
2023-08-25T07:30:40.466Z,17.32
2023-08-25T07:32:43.443Z,17.21
2023-08-25T07:34:46.901Z,17.05
2023-08-25T07:36:50.245Z,17.16
2023-08-25T07:38:53.088Z,17.20
2023-08-25T07:40:56.500Z,17.35
2023-08-25T07:43:03.239Z,17.44
2023-08-25T07:45:06.997Z,17.31
2023-08-25T07:47:09.696Z,17.23
2023-08-25T07:49:12.793Z,17.35
2023-08-25T07:51:18.979Z,17.44
2023-08-25T07:53:28.381Z,17.53
2023-08-25T07:55:32.382Z,17.66
2023-08-25T07:57:36.838Z,17.81
2023-08-25T07:59:39.606Z,17.92
2023-08-25T08:01:42.471Z,18.06
2023-08-25T08:03:45.237Z,18.07
2023-08-25T08:05:48.109Z,17.91
2023-08-25T08:07:51.156Z,17.92
2023-08-25T08:09:54.336Z,17.73
2023-08-25T08:12:00.826Z,17.66
2023-08-25T08:14:07.130Z,17.44
2023-08-25T08:16:10.361Z,17.16
2023-08-25T08:18:13.380Z,17.10
2023-08-25T08:20:16.228Z,17.03
2023-08-25T08:22:19.344Z,16.95
2023-08-25T08:24:32.016Z,16.90
2023-08-25T08:26:42.717Z,17.00
2023-08-25T08:28:45.580Z,17.12
2023-08-25T08:30:49.702Z,17.28
2023-08-25T08:32:52.813Z,17.40
2023-08-25T08:34:55.668Z,17.46
2023-08-25T08:36:59.134Z,17.57
2023-08-25T08:39:04.674Z,17.68
2023-08-25T08:41:08.286Z,17.80
2023-08-25T08:43:16.125Z,17.95
2023-08-25T08:45:25.758Z,18.16
2023-08-25T08:47:29.032Z,18.45
2023-08-25T08:49:35.588Z,18.49
2023-08-25T08:51:40.684Z,18.19
2023-08-25T08:53:44.279Z,18.06
2023-08-25T08:55:49.387Z,17.98
2023-08-25T08:57:52.737Z,18.14
2023-08-25T09:00:01.291Z,18.42
2023-08-25T09:02:06.020Z,18.44
2023-08-25T09:04:10.462Z,18.54
2023-08-25T09:06:13.784Z,18.48
2023-08-25T09:08:18.240Z,18.41
2023-08-25T09:10:26.537Z,18.09
2023-08-25T09:12:32.905Z,17.91
2023-08-25T09:14:44.036Z,17.74
2023-08-25T09:16:47.907Z,17.63
2023-08-25T09:18:54.396Z,17.70
2023-08-25T09:20:58.703Z,18.00
2023-08-25T09:23:05.355Z,18.28
2023-08-25T09:25:10.001Z,18.57
2023-08-25T09:27:26.968Z,18.82
2023-08-25T09:29:58.009Z,19.13
2023-08-25T09:32:04.756Z,19.21
2023-08-25T09:34:09.671Z,19.38
2023-08-25T09:36:15.431Z,19.32
2023-08-25T09:38:24.015Z,19.13
2023-08-25T09:40:31.930Z,19.05
2023-08-25T09:42:41.756Z,18.85
2023-08-25T09:44:47.111Z,18.69
2023-08-25T09:46:54.184Z,18.65
2023-08-25T09:49:04.825Z,18.58
2023-08-25T09:51:08.080Z,18.61
2023-08-25T09:53:14.403Z,18.58
2023-08-25T09:55:19.357Z,18.44
2023-08-25T09:57:25.337Z,18.44
2023-08-25T09:59:28.659Z,18.38
2023-08-25T10:01:34.171Z,18.20
2023-08-25T10:03:37.616Z,18.24
2023-08-25T10:05:42.730Z,18.35
2023-08-25T10:07:46.963Z,18.54
2023-08-25T10:09:50.347Z,18.79
2023-08-25T10:11:54.799Z,18.91
2023-08-25T10:13:59.113Z,19.05
2023-08-25T10:16:05.675Z,18.99
2023-08-25T10:18:10.235Z,19.11
2023-08-25T10:20:16.676Z,18.95
2023-08-25T10:22:21.923Z,18.95
2023-08-25T10:24:27.432Z,18.74
2023-08-25T10:26:32.200Z,18.73
2023-08-25T10:28:36.310Z,18.75
2023-08-25T10:30:42.504Z,18.84
2023-08-25T10:32:57.709Z,18.90
2023-08-25T10:35:04.470Z,18.79
2023-08-25T10:37:27.861Z,18.73
2023-08-25T10:39:52.393Z,18.60
2023-08-25T10:42:00.271Z,18.67
2023-08-25T10:44:03.413Z,18.75
2023-08-25T10:46:12.877Z,18.83
2023-08-25T10:48:30.593Z,18.86
2023-08-25T10:50:44.397Z,18.49
2023-08-25T10:52:54.316Z,18.17
2023-08-25T10:54:57.584Z,18.15
2023-08-25T10:57:19.435Z,18.17
2023-08-25T10:59:23.685Z,18.09
2023-08-25T11:01:56.009Z,18.13
2023-08-25T11:04:23.958Z,18.03
2023-08-25T11:06:43.808Z,18.00
2023-08-25T11:08:57.569Z,18.12
2023-08-25T11:11:19.019Z,18.43
2023-08-25T11:13:22.268Z,18.68
2023-08-25T11:15:25.299Z,18.81
2023-08-25T11:17:28.851Z,19.02
2023-08-25T11:19:33.909Z,19.23
2023-08-25T11:21:39.524Z,19.53
2023-08-25T11:23:45.087Z,19.70
2023-08-25T11:25:48.863Z,19.65
2023-08-25T11:27:52.567Z,19.68
2023-08-25T11:30:11.421Z,19.60
2023-08-25T11:32:17.663Z,19.49
2023-08-25T11:34:23.753Z,19.55
2023-08-25T11:36:27.303Z,19.48
2023-08-25T11:38:33.429Z,19.35
2023-08-25T11:40:40.615Z,19.38
2023-08-25T11:42:43.674Z,19.55
2023-08-25T11:44:46.740Z,19.68
2023-08-25T11:46:51.771Z,19.59
2023-08-25T11:48:59.643Z,19.76
2023-08-25T11:51:04.368Z,19.75
2023-08-25T11:53:08.636Z,19.63
2023-08-25T11:55:17.831Z,19.53
2023-08-25T11:57:20.976Z,19.49
2023-08-25T11:59:30.524Z,19.66
2023-08-25T12:01:37.295Z,20.18
2023-08-25T12:03:44.124Z,20.13
2023-08-25T12:05:48.580Z,19.73
2023-08-25T12:07:54.786Z,19.54
2023-08-25T12:10:02.291Z,19.31
2023-08-25T12:12:10.230Z,19.13
2023-08-25T12:14:31.239Z,19.04
2023-08-25T12:16:34.453Z,19.12
2023-08-25T12:18:39.597Z,19.06
2023-08-25T12:20:45.979Z,18.87
2023-08-25T12:22:59.215Z,18.75
2023-08-25T12:25:02.398Z,18.57
2023-08-25T12:27:07.409Z,18.30
2023-08-25T12:29:13.516Z,18.17
2023-08-25T12:31:16.383Z,18.06
2023-08-25T12:33:19.170Z,17.87
2023-08-25T12:35:23.591Z,17.86
2023-08-25T12:37:28.404Z,17.88
2023-08-25T12:39:31.330Z,17.86
2023-08-25T12:41:34.222Z,17.95
2023-08-25T12:43:37.300Z,18.02
2023-08-25T12:45:40.988Z,18.03
2023-08-25T12:47:44.546Z,18.14
2023-08-25T12:49:47.987Z,18.26
2023-08-25T12:51:52.446Z,18.36
2023-08-25T12:53:58.702Z,18.51
2023-08-25T12:56:01.412Z,18.49
2023-08-25T12:58:04.647Z,18.70
2023-08-25T13:00:09.403Z,18.80
2023-08-25T13:02:12.371Z,19.27
2023-08-25T13:04:15.154Z,19.67
2023-08-25T13:06:17.968Z,20.11
2023-08-25T13:08:21.456Z,20.40
2023-08-25T13:10:24.603Z,20.16
2023-08-25T13:12:27.292Z,20.14
2023-08-25T13:14:30.273Z,20.09
2023-08-25T13:16:33.129Z,19.78
2023-08-25T13:18:36.273Z,19.55
2023-08-25T13:20:39.078Z,19.27
2023-08-25T13:22:42.075Z,19.03
2023-08-25T13:24:44.817Z,18.81
2023-08-25T13:26:47.685Z,18.53
2023-08-25T13:28:51.402Z,18.36
2023-08-25T13:30:54.232Z,18.21
2023-08-25T13:32:57.304Z,18.14
2023-08-25T13:35:00.215Z,18.15
2023-08-25T13:37:04.973Z,18.03
2023-08-25T13:39:10.666Z,18.03
2023-08-25T13:41:13.282Z,18.01
2023-08-25T13:43:16.093Z,18.08
2023-08-25T13:45:19.049Z,18.29
2023-08-25T13:47:21.793Z,18.20
2023-08-25T13:49:24.786Z,18.10
2023-08-25T13:51:27.665Z,18.28
2023-08-25T13:53:31.134Z,18.12
2023-08-25T13:55:34.339Z,18.00
2023-08-25T13:57:49.744Z,17.78
2023-08-25T13:59:52.811Z,17.46
2023-08-25T14:01:55.690Z,17.34
2023-08-25T14:03:58.827Z,17.21
2023-08-25T14:06:05.502Z,17.07
2023-08-25T14:08:11.070Z,17.02
2023-08-25T14:10:13.872Z,16.96
2023-08-25T14:12:17.822Z,17.02
2023-08-25T14:14:20.596Z,17.33
2023-08-25T14:16:23.496Z,17.92
2023-08-25T14:18:28.129Z,18.46
2023-08-25T14:20:32.419Z,18.71
2023-08-25T14:22:35.234Z,18.57
2023-08-25T14:24:37.974Z,18.32
2023-08-25T14:26:41.079Z,18.52
2023-08-25T14:28:43.971Z,19.06
2023-08-25T14:30:46.732Z,19.29
2023-08-25T14:32:49.667Z,19.06
2023-08-25T14:34:52.436Z,18.61
2023-08-25T14:36:55.130Z,18.19
2023-08-25T14:38:58.459Z,17.85
2023-08-25T14:41:01.414Z,17.59
2023-08-25T14:43:04.356Z,17.37
2023-08-25T14:45:07.956Z,17.27
2023-08-25T14:47:10.729Z,17.20
2023-08-25T14:49:14.052Z,17.11
2023-08-25T14:51:17.123Z,17.02
2023-08-25T14:53:19.926Z,17.25
2023-08-25T14:55:22.669Z,17.43
2023-08-25T14:57:25.426Z,17.38
2023-08-25T14:59:28.194Z,17.29
2023-08-25T15:01:31.323Z,17.61
2023-08-25T15:03:34.137Z,17.91
2023-08-25T15:05:36.964Z,18.22
2023-08-25T15:07:39.798Z,18.26
2023-08-25T15:09:42.513Z,18.07
2023-08-25T15:11:45.301Z,17.84
2023-08-25T15:13:48.337Z,17.63
2023-08-25T15:15:51.160Z,17.44
2023-08-25T15:17:54.188Z,17.33
2023-08-25T15:19:57.411Z,17.19
2023-08-25T15:22:00.202Z,17.03
2023-08-25T15:24:03.138Z,16.90
2023-08-25T15:26:06.417Z,16.86
2023-08-25T15:28:09.166Z,16.83
2023-08-25T15:30:12.822Z,16.75
2023-08-25T15:32:15.574Z,16.66
2023-08-25T15:34:18.499Z,16.58
2023-08-25T15:36:22.573Z,16.46
2023-08-25T15:38:25.458Z,16.33
2023-08-25T15:40:33.739Z,16.25
2023-08-25T15:42:36.520Z,16.18
2023-08-25T15:44:41.387Z,16.06
2023-08-25T15:46:44.639Z,16.06
2023-08-25T15:48:47.333Z,15.92
2023-08-25T15:50:50.160Z,15.87
2023-08-25T15:52:55.164Z,15.83
2023-08-25T15:54:58.189Z,15.74
2023-08-25T15:57:02.287Z,15.65
2023-08-25T15:59:05.037Z,15.59
2023-08-25T16:01:11.949Z,15.56
2023-08-25T16:03:15.015Z,15.48
2023-08-25T16:05:18.164Z,15.44
2023-08-25T16:07:21.080Z,15.36
2023-08-25T16:09:23.845Z,15.26
2023-08-25T16:11:26.830Z,15.22
2023-08-25T16:13:30.654Z,15.16
2023-08-25T16:15:38.578Z,15.09
2023-08-25T16:17:42.649Z,15.01
2023-08-25T16:19:45.753Z,14.96
2023-08-25T16:21:48.432Z,14.92
2023-08-25T16:23:51.206Z,14.84
2023-08-25T16:25:54.091Z,14.81
2023-08-25T16:27:56.819Z,14.76
2023-08-25T16:29:59.547Z,14.73
2023-08-25T16:32:04.598Z,14.69
2023-08-25T16:34:09.299Z,14.63
2023-08-25T16:36:14.184Z,14.60
2023-08-25T16:38:17.214Z,14.56
2023-08-25T16:40:20.896Z,14.51
2023-08-25T16:42:23.629Z,14.46
2023-08-25T16:44:26.482Z,14.40
2023-08-25T16:46:29.286Z,14.34
2023-08-25T16:48:32.410Z,14.28
2023-08-25T16:50:36.307Z,14.22
2023-08-25T16:52:39.072Z,14.21
2023-08-25T16:54:41.837Z,14.17
2023-08-25T16:56:44.977Z,14.13
2023-08-25T16:58:49.067Z,14.08
2023-08-25T17:00:52.287Z,14.03
2023-08-25T17:02:57.318Z,14.03
2023-08-25T17:05:00.483Z,14.01
2023-08-25T17:07:03.333Z,13.98
2023-08-25T17:09:06.220Z,13.94
2023-08-25T17:11:09.114Z,13.90
2023-08-25T17:13:11.991Z,13.86
2023-08-25T17:15:16.727Z,13.82
2023-08-25T17:17:19.671Z,13.82
2023-08-25T17:19:22.430Z,13.79
2023-08-25T17:21:25.189Z,13.80
2023-08-25T17:23:28.281Z,13.78
2023-08-25T17:25:31.761Z,13.74
2023-08-25T17:27:34.954Z,13.69
2023-08-25T17:29:37.741Z,13.68
2023-08-25T17:31:40.451Z,13.65
2023-08-25T17:33:43.511Z,13.63
2023-08-25T17:35:46.738Z,13.60
2023-08-25T17:37:49.504Z,13.57
2023-08-25T17:39:52.482Z,13.56
2023-08-25T17:41:55.537Z,13.56
2023-08-25T17:43:58.378Z,13.52
2023-08-25T17:46:02.081Z,13.55
2023-08-25T17:48:06.299Z,13.55
2023-08-25T17:50:09.263Z,13.50
2023-08-25T17:52:12.131Z,13.56
2023-08-25T17:54:15.130Z,13.57
2023-08-25T17:56:17.974Z,13.55
2023-08-25T17:58:20.634Z,13.52
2023-08-25T18:00:23.549Z,13.47
2023-08-25T18:02:26.533Z,13.44
2023-08-25T18:04:29.314Z,13.40
2023-08-25T18:06:32.112Z,13.34
2023-08-25T18:08:37.227Z,13.27
2023-08-25T18:10:40.561Z,13.22
2023-08-25T18:12:43.302Z,13.17
2023-08-25T18:14:46.024Z,13.13
2023-08-25T18:16:49.274Z,13.08
2023-08-25T18:18:52.142Z,13.05
2023-08-25T18:21:02.841Z,13.01
2023-08-25T18:23:06.352Z,12.94
2023-08-25T18:25:09.293Z,12.86
2023-08-25T18:27:12.045Z,12.85
2023-08-25T18:29:14.894Z,12.82
2023-08-25T18:31:17.684Z,12.79
2023-08-25T18:33:20.422Z,12.78
2023-08-25T18:35:23.912Z,12.78
2023-08-25T18:37:26.606Z,12.77
2023-08-25T18:39:29.566Z,12.78
2023-08-25T18:41:32.489Z,12.77
2023-08-25T18:43:36.156Z,12.77
2023-08-25T18:45:38.842Z,12.78
2023-08-25T18:47:41.674Z,12.77
2023-08-25T18:49:44.401Z,12.76
2023-08-25T18:51:47.132Z,12.73
2023-08-25T18:53:49.965Z,12.71
2023-08-25T18:55:52.836Z,12.68
2023-08-25T18:57:55.628Z,12.67
2023-08-25T18:59:58.463Z,12.61
2023-08-25T19:02:01.201Z,12.64
2023-08-25T19:04:04.112Z,12.62
2023-08-25T19:06:07.409Z,12.62
2023-08-25T19:08:10.259Z,12.64
2023-08-25T19:10:13.122Z,12.69
2023-08-25T19:12:15.854Z,12.72
2023-08-25T19:14:19.175Z,12.69
2023-08-25T19:16:21.975Z,12.68
2023-08-25T19:18:25.038Z,12.71
2023-08-25T19:20:27.958Z,12.76
2023-08-25T19:22:30.734Z,12.80
2023-08-25T19:24:34.316Z,12.80
2023-08-25T19:26:37.299Z,12.79
2023-08-25T19:28:42.818Z,12.80
2023-08-25T19:30:46.516Z,12.78
2023-08-25T19:32:49.295Z,12.78
2023-08-25T19:34:52.094Z,12.71
2023-08-25T19:36:55.332Z,12.77
2023-08-25T19:38:58.061Z,12.78
2023-08-25T19:41:08.564Z,12.79
2023-08-25T19:43:11.522Z,12.78
2023-08-25T19:45:15.740Z,12.77
2023-08-25T19:47:18.882Z,12.81
2023-08-25T19:49:21.634Z,12.82
2023-08-25T19:51:24.440Z,12.83
2023-08-25T19:53:27.378Z,12.83
2023-08-25T19:55:30.563Z,12.84
2023-08-25T19:57:33.795Z,12.86
2023-08-25T19:59:36.620Z,12.88
2023-08-25T20:01:39.346Z,12.89
2023-08-25T20:03:42.448Z,12.90
2023-08-25T20:06:08.413Z,12.93
2023-08-25T20:08:11.144Z,12.92
2023-08-25T20:10:14.018Z,12.90
2023-08-25T20:12:16.764Z,12.88
2023-08-25T20:14:19.520Z,12.92
2023-08-25T20:16:24.348Z,12.92
2023-08-25T20:18:27.412Z,12.94
2023-08-25T20:20:30.311Z,12.95
2023-08-25T20:22:33.000Z,12.95
2023-08-25T20:24:35.658Z,12.96
2023-08-25T20:26:38.717Z,12.97
2023-08-25T20:28:41.860Z,12.99
2023-08-25T20:30:48.412Z,12.98
2023-08-25T20:32:51.278Z,12.97
2023-08-25T20:34:54.040Z,12.96
2023-08-25T20:36:56.970Z,12.96
2023-08-25T20:38:59.679Z,12.95
2023-08-25T20:41:04.580Z,12.95
2023-08-25T20:43:07.895Z,12.93
2023-08-25T20:45:10.789Z,12.93
2023-08-25T20:47:13.454Z,12.93
2023-08-25T20:49:16.124Z,12.91
2023-08-25T20:51:27.803Z,12.90
2023-08-25T20:53:30.908Z,12.89
2023-08-25T20:55:33.790Z,12.87
2023-08-25T20:57:36.755Z,12.84
2023-08-25T20:59:39.520Z,12.82
2023-08-25T21:01:42.599Z,12.78
2023-08-25T21:03:45.701Z,12.73
2023-08-25T21:05:48.466Z,12.72
2023-08-25T21:07:51.538Z,12.69
2023-08-25T21:09:54.266Z,12.67
2023-08-25T21:11:57.094Z,12.68
2023-08-25T21:13:59.841Z,12.67
2023-08-25T21:16:03.281Z,12.65
2023-08-25T21:18:06.234Z,12.64
2023-08-25T21:20:09.644Z,12.62
2023-08-25T21:22:12.440Z,12.66
2023-08-25T21:24:15.215Z,12.66
2023-08-25T21:26:19.735Z,12.62
2023-08-25T21:28:22.756Z,12.61
2023-08-25T21:30:25.611Z,12.59
2023-08-25T21:32:28.378Z,12.57
2023-08-25T21:34:31.265Z,12.54
2023-08-25T21:36:34.999Z,12.52
2023-08-25T21:38:37.769Z,12.52
2023-08-25T21:40:40.550Z,12.53
2023-08-25T21:42:43.362Z,12.53
2023-08-25T21:44:46.069Z,12.50
2023-08-25T21:46:48.801Z,12.47
2023-08-25T21:48:52.354Z,12.43
2023-08-25T21:50:55.074Z,12.43
2023-08-25T21:52:57.931Z,12.39
2023-08-25T21:55:00.740Z,12.39
2023-08-25T21:57:03.730Z,12.42
2023-08-25T21:59:06.867Z,12.39
2023-08-25T22:01:09.743Z,12.40
2023-08-25T22:03:12.768Z,12.40
2023-08-25T22:05:15.651Z,12.39
2023-08-25T22:07:18.498Z,12.37
2023-08-25T22:09:21.298Z,12.33
2023-08-25T22:11:24.153Z,12.32
2023-08-25T22:13:26.898Z,12.29
2023-08-25T22:15:29.775Z,12.27
2023-08-25T22:17:32.494Z,12.22
2023-08-25T22:19:35.333Z,12.20
2023-08-25T22:21:38.235Z,12.17
2023-08-25T22:23:40.979Z,12.17
2023-08-25T22:25:43.838Z,12.16
2023-08-25T22:27:46.634Z,12.17
2023-08-25T22:29:49.404Z,12.15
2023-08-25T22:31:57.456Z,12.20
2023-08-25T22:36:06.161Z,12.18
2023-08-25T22:38:09.041Z,12.19
2023-08-25T22:40:11.893Z,12.19
2023-08-25T22:42:14.751Z,12.22
2023-08-25T22:44:17.531Z,12.20
2023-08-25T22:46:20.338Z,12.18
2023-08-25T22:48:23.291Z,12.14
2023-08-25T22:50:25.992Z,12.10
2023-08-25T22:52:28.771Z,12.10
2023-08-25T22:54:31.830Z,12.06
2023-08-25T22:56:34.618Z,11.95
2023-08-25T22:58:37.443Z,11.95
2023-08-25T23:00:40.251Z,11.98
2023-08-25T23:02:44.898Z,11.94
2023-08-25T23:04:49.346Z,11.95
2023-08-25T23:06:52.168Z,11.91
2023-08-25T23:08:54.867Z,11.88
2023-08-25T23:10:57.630Z,11.85
2023-08-25T23:13:00.300Z,11.88
2023-08-25T23:15:02.992Z,11.92
2023-08-25T23:17:07.412Z,11.94
2023-08-25T23:19:10.249Z,11.89
2023-08-25T23:21:13.245Z,11.80
2023-08-25T23:23:16.540Z,11.78
2023-08-25T23:25:19.258Z,11.72
2023-08-25T23:27:22.331Z,11.63
2023-08-25T23:29:25.099Z,11.58
2023-08-25T23:31:27.805Z,11.51
2023-08-25T23:33:31.156Z,11.46
2023-08-25T23:35:35.837Z,11.45
2023-08-25T23:37:38.516Z,11.46
2023-08-25T23:39:41.328Z,11.45
2023-08-25T23:41:44.031Z,11.49
2023-08-25T23:43:46.852Z,11.54
2023-08-25T23:45:50.345Z,11.54
2023-08-25T23:47:53.190Z,11.60
2023-08-25T23:49:55.992Z,11.60
2023-08-25T23:51:59.677Z,11.59
2023-08-25T23:54:02.415Z,11.58
2023-08-25T23:56:05.494Z,11.63
2023-08-25T23:58:08.246Z,11.65
